Arbor Hill, Iowa
Current Conditions -  °F | °C
As of 12:55 AM on Monday 22 Dec 2014 (Local Time) from KPRO Reporting Station
Haze Haze  
Wind Chill: 33°   Ceiling: 700
Heat Index: 41°   Visibility: 5mi
Dew Point: 40°   Wind: 14mph
Humidity: 98%   Direction: 160°SSE
Pressure: 29.7"   Gusts: NA
Location:  41.5397°N, 94.299°W
Report Text: KPRO 220655Z AUTO 16012KT 5SM BR OVC007 05/05 A2970 RMK AO2 T00500047
Loading
Personal Weather Stations






























Interactive Weather Map New forecast layout! Learn more

10-Day Weather Forecast

Advertisements
Track Severe Weather on mobile